Time;durP1;ratioP1;P1;durP2;ratioP2;P2;SDS_P1;SDS_P2;PMS_P1;PMS_P2;Temp;Humidity;BMP_temperature;BMP_pressure;BME280_temperature;BME280_humidity;BME280_pressure;Samples;Min_cycle;Max_cycle;Signal;HPM_P1;HPM_P2
2023/04/03 00:02:07;;;;;;;;;;;16.80;42.90;;;;;;5053113;27;19911;-73
2023/04/03 00:04:33;;;;;;;;;;;16.80;42.90;;;;;;5057889;28;19917;-73
2023/04/03 00:06:58;;;;;;;;;;;16.80;42.90;;;;;;5018250;28;20058;-73
2023/04/03 00:09:24;;;;;;;;;;;16.80;42.90;;;;;;5031287;28;19924;-73
2023/04/03 00:11:49;;;;;;;;;;;16.80;42.90;;;;;;5024508;28;20406;-73
2023/04/03 00:14:15;;;;;;;;;;;16.80;42.90;;;;;;5001960;28;19917;-73
2023/04/03 00:16:40;;;;;;;;;;;16.70;42.90;;;;;;5025614;28;19918;-73
2023/04/03 00:19:06;;;;;;;;;;;16.70;43.00;;;;;;5011401;28;20390;-73
2023/04/03 00:21:31;;;;;;;;;;;16.70;42.90;;;;;;5012653;28;19956;-73
2023/04/03 00:23:57;;;;;;;;;;;16.70;42.80;;;;;;5011744;28;19913;-73
2023/04/03 00:26:22;;;;;;;;;;;16.70;42.90;;;;;;5011701;28;19921;-73
2023/04/03 00:28:48;;;;;;;;;;;16.70;42.90;;;;;;5012116;28;19909;-73
2023/04/03 00:31:16;;;;;;;;;;;16.70;43.00;;;;;;5010293;28;19921;-73
2023/04/03 00:33:42;;;;;;;;;;;16.60;42.80;;;;;;5014626;27;19988;-73
2023/04/03 00:36:09;;;;;;;;;;;16.60;43.00;;;;;;5010766;28;20325;-73
2023/04/03 00:38:34;;;;;;;;;;;16.60;42.90;;;;;;5029019;28;19913;-73
2023/04/03 00:41:00;;;;;;;;;;;16.60;42.90;;;;;;5011666;28;19962;-73
2023/04/03 00:43:26;;;;;;;;;;;16.60;42.90;;;;;;5018501;28;19918;-73
2023/04/03 00:45:52;;;;;;;;;;;16.60;42.90;;;;;;5013380;28;20282;-73
2023/04/03 00:48:35;;;;;;;;;;;16.60;42.90;;;;;;5006021;28;19913;-73
2023/04/03 00:51:00;;;;;;;;;;;16.60;42.90;;;;;;5031034;28;19924;-73
2023/04/03 00:53:28;;;;;;;;;;;16.60;42.90;;;;;;5009192;28;20390;-73
2023/04/03 00:55:53;;;;;;;;;;;16.50;42.90;;;;;;4999426;28;20012;-73
2023/04/03 00:58:20;;;;;;;;;;;16.50;43.00;;;;;;5002590;28;19941;-73
2023/04/03 01:00:47;;;;;;;;;;;16.50;42.90;;;;;;5027994;28;20386;-73
2023/04/03 01:03:13;;;;;;;;;;;16.50;43.00;;;;;;5017508;28;19914;-73
2023/04/03 01:05:38;;;;;;;;;;;16.50;43.10;;;;;;5013719;28;20363;-73
2023/04/03 01:08:04;;;;;;;;;;;16.40;43.00;;;;;;5020966;28;20053;-73
2023/04/03 01:10:30;;;;;;;;;;;16.50;43.00;;;;;;5011744;28;19918;-73
2023/04/03 01:12:55;;;;;;;;;;;16.40;43.00;;;;;;5015207;28;20384;-73
2023/04/03 01:15:24;;;;;;;;;;;16.40;43.00;;;;;;5030340;28;20382;-73
2023/04/03 01:17:51;;;;;;;;;;;16.50;42.90;;;;;;5025546;28;20232;-73
2023/04/03 01:20:22;;;;;;;;;;;16.50;42.90;;;;;;5023275;28;19917;-73
2023/04/03 01:22:52;;;;;;;;;;;16.50;42.80;;;;;;5012200;28;19917;-73
2023/04/03 01:25:17;;;;;;;;;;;16.60;42.80;;;;;;5024997;28;19917;-73
2023/04/03 01:27:43;;;;;;;;;;;16.60;42.80;;;;;;5009834;28;20004;-73
2023/04/03 01:30:08;;;;;;;;;;;16.70;42.70;;;;;;5027191;28;19947;-73
2023/04/03 01:32:34;;;;;;;;;;;16.80;42.30;;;;;;5015085;27;19966;-73
2023/04/03 01:34:59;;;;;;;;;;;17.00;42.00;;;;;;5012050;28;19919;-73
2023/04/03 01:37:25;;;;;;;;;;;17.10;42.10;;;;;;5015187;28;19924;-73
2023/04/03 01:39:50;;;;;;;;;;;17.30;42.20;;;;;;5000293;28;20337;-73
2023/04/03 01:42:16;;;;;;;;;;;17.40;42.20;;;;;;5018442;28;19924;-73
2023/04/03 01:44:41;;;;;;;;;;;17.60;41.90;;;;;;5028782;28;19967;-73
2023/04/03 01:47:07;;;;;;;;;;;17.70;41.90;;;;;;5007800;28;19957;-73
2023/04/03 01:49:32;;;;;;;;;;;17.70;41.70;;;;;;5014545;28;19924;-73
2023/04/03 01:51:58;;;;;;;;;;;17.70;41.70;;;;;;5016746;28;19918;-73
2023/04/03 01:54:23;;;;;;;;;;;17.60;41.20;;;;;;5016322;28;20352;-73
2023/04/03 01:56:49;;;;;;;;;;;17.60;41.10;;;;;;5017106;28;19917;-73
2023/04/03 01:59:16;;;;;;;;;;;17.60;41.00;;;;;;5023079;28;19917;-73
2023/04/03 02:01:43;;;;;;;;;;;17.60;41.00;;;;;;5016383;28;20081;-73
2023/04/03 02:04:08;;;;;;;;;;;17.70;41.20;;;;;;5025815;28;19913;-73
2023/04/03 02:06:34;;;;;;;;;;;17.70;40.80;;;;;;5019565;28;19924;-73
2023/04/03 02:09:00;;;;;;;;;;;17.80;40.80;;;;;;4993787;28;19910;-72
2023/04/03 02:11:25;;;;;;;;;;;17.80;40.70;;;;;;5004867;28;19921;-73
2023/04/03 02:13:51;;;;;;;;;;;17.90;40.70;;;;;;5011578;28;19910;-73
2023/04/03 02:16:16;;;;;;;;;;;17.90;40.60;;;;;;5011563;28;20028;-73
2023/04/03 02:18:42;;;;;;;;;;;18.00;40.70;;;;;;5031108;28;19956;-73
2023/04/03 02:21:07;;;;;;;;;;;17.90;40.50;;;;;;5020278;28;19913;-73
2023/04/03 02:23:33;;;;;;;;;;;17.90;40.50;;;;;;5028080;28;20401;-73
2023/04/03 02:26:09;;;;;;;;;;;17.90;40.60;;;;;;5007446;28;20394;-73
2023/04/03 02:28:34;;;;;;;;;;;17.90;40.50;;;;;;5013362;28;20008;-73
2023/04/03 02:31:00;;;;;;;;;;;17.90;40.60;;;;;;4996262;28;20345;-73
2023/04/03 02:33:25;;;;;;;;;;;17.90;40.60;;;;;;5005496;28;19936;-73
2023/04/03 02:35:54;;;;;;;;;;;17.90;40.70;;;;;;5009590;28;19913;-73
2023/04/03 02:38:20;;;;;;;;;;;17.90;40.80;;;;;;5072534;27;20394;-73
2023/04/03 02:40:45;;;;;;;;;;;17.80;40.80;;;;;;4993233;28;19975;-73
2023/04/03 02:43:11;;;;;;;;;;;17.80;40.80;;;;;;4998932;28;19921;-73
2023/04/03 02:45:36;;;;;;;;;;;17.80;40.90;;;;;;5026468;28;19952;-73
2023/04/03 02:48:02;;;;;;;;;;;17.80;40.90;;;;;;5017972;28;20437;-73
2023/04/03 02:50:27;;;;;;;;;;;17.80;40.80;;;;;;5019981;28;19989;-73
2023/04/03 02:52:52;;;;;;;;;;;17.70;40.80;;;;;;5013367;28;20279;-73
2023/04/03 02:55:18;;;;;;;;;;;17.60;40.90;;;;;;5014934;28;19982;-73
2023/04/03 02:57:43;;;;;;;;;;;17.70;41.00;;;;;;5008833;28;19970;-72
2023/04/03 03:00:09;;;;;;;;;;;17.70;41.10;;;;;;5008934;28;19918;-73
2023/04/03 03:02:35;;;;;;;;;;;17.70;40.90;;;;;;5008689;28;19910;-73
2023/04/03 03:05:00;;;;;;;;;;;17.70;41.10;;;;;;5008627;28;20363;-73
2023/04/03 03:07:26;;;;;;;;;;;17.70;41.10;;;;;;5042114;28;20294;-73
2023/04/03 03:09:51;;;;;;;;;;;17.70;41.10;;;;;;5012780;28;19953;-73
2023/04/03 03:12:21;;;;;;;;;;;17.70;40.90;;;;;;5012558;28;19924;-73
2023/04/03 03:14:47;;;;;;;;;;;17.70;40.80;;;;;;5005335;28;19913;-73
2023/04/03 03:17:12;;;;;;;;;;;17.80;40.80;;;;;;5008404;28;19914;-73
2023/04/03 03:19:38;;;;;;;;;;;17.80;40.80;;;;;;5010585;28;20438;-73
2023/04/03 03:22:03;;;;;;;;;;;17.80;41.40;;;;;;5024846;28;20420;-73
2023/04/03 03:24:29;;;;;;;;;;;17.90;40.60;;;;;;5007192;28;20354;-73
2023/04/03 03:26:54;;;;;;;;;;;17.80;40.60;;;;;;5071395;28;19917;-73
2023/04/03 03:29:20;;;;;;;;;;;17.90;40.70;;;;;;5021505;28;20316;-73
2023/04/03 03:31:45;;;;;;;;;;;17.90;40.70;;;;;;5013969;28;20324;-73
2023/04/03 03:34:11;;;;;;;;;;;17.90;40.60;;;;;;5011194;28;19913;-73
2023/04/03 03:36:37;;;;;;;;;;;17.90;40.60;;;;;;5009052;28;19970;-73
2023/04/03 03:39:02;;;;;;;;;;;17.90;40.60;;;;;;4996377;28;20012;-74
2023/04/03 03:41:28;;;;;;;;;;;17.90;40.60;;;;;;5017381;28;19913;-73
2023/04/03 03:43:53;;;;;;;;;;;17.90;40.60;;;;;;5002317;28;20272;-73
2023/04/03 03:46:19;;;;;;;;;;;17.90;40.60;;;;;;5004687;28;19913;-72
2023/04/03 03:48:44;;;;;;;;;;;17.90;40.60;;;;;;4992440;28;20371;-74
2023/04/03 03:51:10;;;;;;;;;;;17.90;40.50;;;;;;5014417;28;19923;-73
2023/04/03 03:53:35;;;;;;;;;;;17.90;40.70;;;;;;5007201;28;20004;-73
2023/04/03 03:56:01;;;;;;;;;;;17.80;40.70;;;;;;4992127;28;19914;-74
2023/04/03 03:58:26;;;;;;;;;;;17.80;40.80;;;;;;5013469;28;19925;-73
2023/04/03 04:00:52;;;;;;;;;;;17.80;40.80;;;;;;5004341;28;20308;-73
2023/04/03 04:03:17;;;;;;;;;;;17.80;40.80;;;;;;5006545;28;19936;-73
2023/04/03 04:05:43;;;;;;;;;;;17.80;40.70;;;;;;4999789;28;20267;-73
2023/04/03 04:08:08;;;;;;;;;;;17.90;40.90;;;;;;5009712;28;19964;-73
2023/04/03 04:10:34;;;;;;;;;;;17.80;40.80;;;;;;5009138;28;20352;-74
2023/04/03 04:12:59;;;;;;;;;;;17.80;40.80;;;;;;5012170;28;19975;-73
2023/04/03 04:15:25;;;;;;;;;;;17.90;40.90;;;;;;5007441;28;20396;-73
2023/04/03 04:17:51;;;;;;;;;;;17.90;40.70;;;;;;5013573;28;20000;-73
2023/04/03 04:20:16;;;;;;;;;;;17.90;40.70;;;;;;5013932;28;20003;-74
2023/04/03 04:22:42;;;;;;;;;;;17.90;40.50;;;;;;5015366;28;19963;-74
2023/04/03 04:25:07;;;;;;;;;;;18.00;40.60;;;;;;5008372;28;19913;-73
2023/04/03 04:27:33;;;;;;;;;;;18.00;40.60;;;;;;5020543;28;19909;-73
2023/04/03 04:29:58;;;;;;;;;;;18.00;40.50;;;;;;5010991;28;19961;-74
2023/04/03 04:32:24;;;;;;;;;;;18.00;40.60;;;;;;5010052;28;19921;-74
2023/04/03 04:34:49;;;;;;;;;;;18.00;40.40;;;;;;5011314;28;19921;-73
2023/04/03 04:37:15;;;;;;;;;;;18.00;40.50;;;;;;5012627;28;19966;-74
2023/04/03 04:39:40;;;;;;;;;;;18.00;40.40;;;;;;5022331;28;19914;-73
2023/04/03 04:42:06;;;;;;;;;;;18.00;40.40;;;;;;5000630;28;19913;-74
2023/04/03 04:44:32;;;;;;;;;;;18.00;40.50;;;;;;5008261;28;20379;-74
2023/04/03 04:46:57;;;;;;;;;;;18.00;40.30;;;;;;5011316;28;20063;-73
2023/04/03 04:49:23;;;;;;;;;;;18.00;40.40;;;;;;5011283;28;20399;-73
2023/04/03 04:51:48;;;;;;;;;;;18.00;40.30;;;;;;5012376;28;20389;-73
2023/04/03 04:54:14;;;;;;;;;;;18.00;40.40;;;;;;5011750;28;20286;-73
2023/04/03 04:56:40;;;;;;;;;;;18.00;40.50;;;;;;5006726;28;19913;-73
2023/04/03 04:59:05;;;;;;;;;;;17.90;40.50;;;;;;5057679;28;20012;-73
2023/04/03 05:01:31;;;;;;;;;;;17.90;40.40;;;;;;5012247;28;19913;-73
2023/04/03 05:03:56;;;;;;;;;;;17.90;40.60;;;;;;5030970;28;20402;-73
2023/04/03 05:06:22;;;;;;;;;;;17.90;40.60;;;;;;5022890;28;19913;-73
2023/04/03 05:08:47;;;;;;;;;;;17.90;40.60;;;;;;5015172;28;19913;-73
2023/04/03 05:11:13;;;;;;;;;;;17.90;40.70;;;;;;5007076;28;19997;-73
2023/04/03 05:13:38;;;;;;;;;;;17.90;40.50;;;;;;5018082;28;20378;-73
2023/04/03 05:16:04;;;;;;;;;;;17.90;40.40;;;;;;5002118;28;20014;-73
2023/04/03 05:18:29;;;;;;;;;;;18.00;40.60;;;;;;5005448;28;19949;-73
2023/04/03 05:20:55;;;;;;;;;;;17.90;40.40;;;;;;5009182;28;20406;-73
2023/04/03 05:23:20;;;;;;;;;;;17.90;40.50;;;;;;4994659;28;19909;-73
2023/04/03 05:25:46;;;;;;;;;;;17.90;40.50;;;;;;5014839;28;19962;-73
2023/04/03 05:28:12;;;;;;;;;;;17.90;40.40;;;;;;5019692;28;20333;-73
2023/04/03 05:30:37;;;;;;;;;;;17.90;40.40;;;;;;5009022;28;20039;-73
2023/04/03 05:33:03;;;;;;;;;;;17.90;40.40;;;;;;5017942;27;20389;-73
2023/04/03 05:35:28;;;;;;;;;;;17.90;40.30;;;;;;5011265;28;19964;-73
2023/04/03 05:37:54;;;;;;;;;;;18.00;40.40;;;;;;5000701;28;19934;-74
2023/04/03 05:40:19;;;;;;;;;;;18.00;40.40;;;;;;5023790;28;19967;-74
2023/04/03 05:42:45;;;;;;;;;;;18.00;40.30;;;;;;5009687;28;19974;-74
2023/04/03 05:45:10;;;;;;;;;;;18.00;41.00;;;;;;5022063;28;19914;-74
2023/04/03 05:47:36;;;;;;;;;;;18.00;40.40;;;;;;5009002;28;19965;-73
2023/04/03 05:50:01;;;;;;;;;;;18.00;40.40;;;;;;5018005;28;19917;-74
2023/04/03 05:52:28;;;;;;;;;;;18.00;40.40;;;;;;5017403;28;20361;-74
2023/04/03 05:54:53;;;;;;;;;;;18.00;40.50;;;;;;5021739;28;19982;-73
2023/04/03 05:57:19;;;;;;;;;;;17.90;40.40;;;;;;4997826;28;20024;-74
2023/04/03 05:59:45;;;;;;;;;;;17.90;40.50;;;;;;5002332;28;19921;-73
2023/04/03 06:02:15;;;;;;;;;;;17.90;40.50;;;;;;5016024;27;20345;-73
2023/04/03 06:04:40;;;;;;;;;;;17.90;40.50;;;;;;5013988;28;19913;-73
2023/04/03 06:07:07;;;;;;;;;;;17.90;40.60;;;;;;5008694;28;19940;-73
2023/04/03 06:09:32;;;;;;;;;;;17.90;40.50;;;;;;5016857;28;20024;-73
2023/04/03 06:11:58;;;;;;;;;;;17.90;40.50;;;;;;5010067;28;20350;-73
2023/04/03 06:14:25;;;;;;;;;;;17.90;40.50;;;;;;4999928;28;21299;-73
2023/04/03 06:16:51;;;;;;;;;;;18.00;40.50;;;;;;5005285;28;20004;-73
2023/04/03 06:19:17;;;;;;;;;;;18.00;40.70;;;;;;5012447;28;19970;-74
2023/04/03 06:21:42;;;;;;;;;;;17.90;40.60;;;;;;5010770;28;19974;-73
2023/04/03 06:24:08;;;;;;;;;;;17.90;40.40;;;;;;5018984;28;19972;-74
2023/04/03 06:26:33;;;;;;;;;;;17.90;40.50;;;;;;5004971;28;19913;-73
2023/04/03 06:28:59;;;;;;;;;;;18.00;40.60;;;;;;5011471;28;19933;-73
2023/04/03 06:31:24;;;;;;;;;;;18.00;40.50;;;;;;5008288;28;20008;-73
2023/04/03 06:33:50;;;;;;;;;;;18.00;40.40;;;;;;4998798;28;19936;-73
2023/04/03 06:36:19;;;;;;;;;;;17.90;40.40;;;;;;4994164;28;20006;-73
2023/04/03 06:38:45;;;;;;;;;;;18.00;40.50;;;;;;5008537;28;20409;-73
2023/04/03 06:41:10;;;;;;;;;;;18.00;40.60;;;;;;5012328;28;19914;-73
2023/04/03 06:43:36;;;;;;;;;;;17.90;40.60;;;;;;5023617;28;19914;-73
2023/04/03 06:46:01;;;;;;;;;;;17.90;40.50;;;;;;5000436;28;19914;-73
2023/04/03 06:48:27;;;;;;;;;;;17.90;40.60;;;;;;5014893;28;19991;-73
2023/04/03 06:50:52;;;;;;;;;;;17.90;40.60;;;;;;5005412;28;20002;-74
2023/04/03 06:53:18;;;;;;;;;;;17.90;40.70;;;;;;5006669;27;20306;-74
2023/04/03 06:55:43;;;;;;;;;;;17.90;40.70;;;;;;5011825;28;19917;-74
2023/04/03 06:58:09;;;;;;;;;;;18.40;40.30;;;;;;5012913;28;19944;-74
2023/04/03 07:00:34;;;;;;;;;;;19.00;39.20;;;;;;5009873;28;19920;-74
2023/04/03 07:03:00;;;;;;;;;;;19.80;38.30;;;;;;5003167;28;19921;-75
2023/04/03 07:05:26;;;;;;;;;;;20.40;37.40;;;;;;4997949;28;19913;-75
2023/04/03 07:07:52;;;;;;;;;;;21.00;36.60;;;;;;5006390;28;20008;-74
2023/04/03 07:10:18;;;;;;;;;;;21.40;36.00;;;;;;5023182;28;19929;-74
2023/04/03 07:12:43;;;;;;;;;;;21.50;35.70;;;;;;5026546;28;19925;-74
2023/04/03 07:15:09;;;;;;;;;;;21.50;35.80;;;;;;5005844;28;20280;-75
2023/04/03 07:17:35;;;;;;;;;;;21.50;35.70;;;;;;5003657;28;19932;-75
2023/04/03 07:20:01;;;;;;;;;;;21.60;35.50;;;;;;5017402;28;19944;-75
2023/04/03 07:22:26;;;;;;;;;;;21.80;35.30;;;;;;5026364;28;19956;-74
2023/04/03 07:28:11;;;;;;;;;;;22.10;35.00;;;;;;5020567;28;20393;-74
2023/04/03 07:30:46;;;;;;;;;;;22.20;34.90;;;;;;5014767;28;19917;-75
2023/04/03 07:33:12;;;;;;;;;;;22.10;35.10;;;;;;5021352;28;19913;-75
2023/04/03 07:35:38;;;;;;;;;;;22.10;35.00;;;;;;5020206;28;20430;-74
2023/04/03 07:38:04;;;;;;;;;;;22.20;34.90;;;;;;5019302;28;19917;-74
2023/04/03 07:40:29;;;;;;;;;;;22.30;34.70;;;;;;5028167;28;19966;-75
2023/04/03 07:42:56;;;;;;;;;;;22.40;34.60;;;;;;4999716;28;19928;-74
2023/04/03 07:45:22;;;;;;;;;;;22.50;34.40;;;;;;5011031;28;20367;-74
2023/04/03 07:47:48;;;;;;;;;;;22.60;34.40;;;;;;5013664;28;19942;-75
2023/04/03 07:50:14;;;;;;;;;;;22.60;34.20;;;;;;5010812;28;19921;-75
2023/04/03 07:52:40;;;;;;;;;;;22.60;34.30;;;;;;5013333;28;19913;-74
2023/04/03 07:55:06;;;;;;;;;;;22.60;34.40;;;;;;5010039;28;19918;-74
2023/04/03 07:57:31;;;;;;;;;;;22.60;34.20;;;;;;4989455;28;20284;-75
2023/04/03 07:59:57;;;;;;;;;;;22.70;34.30;;;;;;5002245;28;20053;-74
2023/04/03 08:02:22;;;;;;;;;;;22.70;34.30;;;;;;5011818;28;19913;-74
2023/04/03 08:04:48;;;;;;;;;;;22.70;34.50;;;;;;5007456;28;19914;-75
2023/04/03 08:07:13;;;;;;;;;;;22.60;34.70;;;;;;5005662;28;20307;-75
2023/04/03 08:09:38;;;;;;;;;;;22.60;34.80;;;;;;5008656;28;19928;-76
2023/04/03 08:12:04;;;;;;;;;;;22.50;35.10;;;;;;5009515;28;20008;-75
2023/04/03 08:14:31;;;;;;;;;;;22.20;35.30;;;;;;5020334;28;19964;-75
2023/04/03 08:16:56;;;;;;;;;;;22.10;35.90;;;;;;5012525;28;19964;-74
2023/04/03 08:19:22;;;;;;;;;;;21.90;36.00;;;;;;5005141;28;20010;-75
2023/04/03 08:21:47;;;;;;;;;;;22.00;36.00;;;;;;5025826;27;19924;-75
2023/04/03 08:24:13;;;;;;;;;;;22.20;35.80;;;;;;5046857;27;19915;-74
2023/04/03 08:26:38;;;;;;;;;;;22.30;35.50;;;;;;5018816;28;19918;-74
2023/04/03 08:29:04;;;;;;;;;;;22.40;35.40;;;;;;5032391;28;19971;-74
2023/04/03 08:31:29;;;;;;;;;;;22.40;35.40;;;;;;5027530;28;20374;-74
2023/04/03 08:33:56;;;;;;;;;;;22.50;35.50;;;;;;5011271;28;20390;-74
2023/04/03 08:36:26;;;;;;;;;;;22.60;35.40;;;;;;5008525;28;20309;-75
2023/04/03 08:38:51;;;;;;;;;;;22.70;35.40;;;;;;5008300;28;20365;-74
2023/04/03 08:41:30;;;;;;;;;;;22.80;35.20;;;;;;5022819;28;19917;-74
2023/04/03 08:43:57;;;;;;;;;;;22.80;35.20;;;;;;5023822;28;19949;-74
2023/04/03 08:46:24;;;;;;;;;;;22.80;35.30;;;;;;5012140;28;20309;-74
2023/04/03 08:48:49;;;;;;;;;;;22.70;35.70;;;;;;5026537;28;20389;-75
2023/04/03 08:51:15;;;;;;;;;;;22.60;35.60;;;;;;5007132;28;19917;-74
2023/04/03 08:53:56;;;;;;;;;;;22.60;35.60;;;;;;5014721;28;19936;-74
2023/04/03 08:56:22;;;;;;;;;;;22.50;35.80;;;;;;5020722;28;19913;-74
2023/04/03 08:58:52;;;;;;;;;;;22.30;36.20;;;;;;5016599;28;19924;-74
2023/04/03 09:01:37;;;;;;;;;;;22.00;36.60;;;;;;5008404;28;19917;-73
2023/04/03 09:04:03;;;;;;;;;;;21.90;37.00;;;;;;5020278;28;20282;-74
2023/04/03 09:06:32;;;;;;;;;;;22.00;36.90;;;;;;4999128;28;19986;-73
2023/04/03 09:08:57;;;;;;;;;;;22.10;36.80;;;;;;5065208;28;19915;-74
2023/04/03 09:11:43;;;;;;;;;;;22.20;36.60;;;;;;5013932;28;19931;-75
2023/04/03 09:14:24;;;;;;;;;;;22.30;36.60;;;;;;5007702;28;19917;-74
2023/04/03 09:16:56;;;;;;;;;;;22.40;36.50;;;;;;5017085;28;19913;-74
2023/04/03 09:19:22;;;;;;;;;;;22.50;36.40;;;;;;5013085;28;20336;-74
2023/04/03 09:21:47;;;;;;;;;;;22.50;36.40;;;;;;5015960;28;19994;-74
2023/04/03 09:24:13;;;;;;;;;;;22.40;36.50;;;;;;5012477;28;19996;-74
2023/04/03 09:26:43;;;;;;;;;;;22.30;36.70;;;;;;5019914;28;19970;-74
2023/04/03 09:29:09;;;;;;;;;;;22.30;36.80;;;;;;5007358;28;20287;-74
2023/04/03 09:31:39;;;;;;;;;;;22.30;36.90;;;;;;5020685;28;19917;-75
2023/04/03 09:34:24;;;;;;;;;;;22.40;36.80;;;;;;5002873;28;20340;-74
2023/04/03 09:36:53;;;;;;;;;;;22.40;36.60;;;;;;5013870;28;24000;-75
2023/04/03 09:39:20;;;;;;;;;;;22.50;36.60;;;;;;5011732;28;19962;-75
2023/04/03 09:42:05;;;;;;;;;;;22.40;36.70;;;;;;5007505;28;19920;-75
2023/04/03 09:44:31;;;;;;;;;;;22.50;36.70;;;;;;5015957;28;19964;-75
2023/04/03 09:46:57;;;;;;;;;;;22.60;36.60;;;;;;5004137;28;19960;-74
2023/04/03 09:49:22;;;;;;;;;;;22.70;36.60;;;;;;5020540;28;19968;-75
2023/04/03 09:51:49;;;;;;;;;;;22.70;36.40;;;;;;5017335;28;19953;-75
2023/04/03 09:54:31;;;;;;;;;;;22.70;36.20;;;;;;5000848;28;20378;-74
2023/04/03 09:56:56;;;;;;;;;;;22.80;36.30;;;;;;5009881;28;20005;-74
2023/04/03 09:59:22;;;;;;;;;;;22.90;36.10;;;;;;5018821;27;19949;-75
2023/04/03 10:01:57;;;;;;;;;;;23.00;36.10;;;;;;5009368;28;19917;-75
2023/04/03 10:07:27;;;;;;;;;;;22.90;36.00;;;;;;5020703;28;20451;-74
2023/04/03 10:10:01;;;;;;;;;;;23.00;36.40;;;;;;5013100;28;19917;-74
2023/04/03 10:12:26;;;;;;;;;;;23.00;36.50;;;;;;5001058;28;19929;-75
2023/04/03 10:14:52;;;;;;;;;;;23.00;36.50;;;;;;5017119;28;20302;-75
2023/04/03 10:17:18;;;;;;;;;;;23.00;36.60;;;;;;5015179;28;19921;-75
2023/04/03 10:19:44;;;;;;;;;;;23.00;36.60;;;;;;5017936;28;19914;-75
2023/04/03 10:22:18;;;;;;;;;;;23.00;36.70;;;;;;5003863;28;19925;-74
2023/04/03 10:24:47;;;;;;;;;;;22.90;36.80;;;;;;5015758;28;19937;-74
2023/04/03 10:27:12;;;;;;;;;;;22.80;37.00;;;;;;5009662;28;19916;-75
2023/04/03 10:29:55;;;;;;;;;;;22.70;37.30;;;;;;5011304;28;21263;-73
2023/04/03 10:32:35;;;;;;;;;;;22.70;37.20;;;;;;5012322;27;19913;-74
2023/04/03 10:35:20;;;;;;;;;;;22.70;37.30;;;;;;5021234;28;19975;-74
2023/04/03 10:37:52;;;;;;;;;;;22.80;37.20;;;;;;5012774;28;19909;-74
2023/04/03 10:40:32;;;;;;;;;;;23.00;37.10;;;;;;5004859;28;19918;-75
2023/04/03 10:43:01;;;;;;;;;;;23.00;37.10;;;;;;5014029;28;19918;-75
2023/04/03 10:45:46;;;;;;;;;;;23.00;37.10;;;;;;5019653;28;20409;-75
2023/04/03 10:48:23;;;;;;;;;;;23.00;37.10;;;;;;5016664;28;19916;-75
2023/04/03 10:50:52;;;;;;;;;;;23.00;37.20;;;;;;5014189;28;20016;-75
2023/04/03 10:53:36;;;;;;;;;;;23.00;37.30;;;;;;5009958;28;19914;-75
2023/04/03 10:56:04;;;;;;;;;;;23.10;37.30;;;;;;5011782;28;20078;-74
2023/04/03 10:58:32;;;;;;;;;;;23.10;37.20;;;;;;5017896;28;19917;-74
2023/04/03 11:01:00;;;;;;;;;;;23.20;37.20;;;;;;5017288;28;19924;-75
2023/04/03 11:03:26;;;;;;;;;;;23.20;36.90;;;;;;5012097;28;19952;-76
2023/04/03 11:05:53;;;;;;;;;;;23.20;37.10;;;;;;5010921;28;19952;-75
2023/04/03 11:08:39;;;;;;;;;;;23.20;37.20;;;;;;5009068;28;20005;-76
2023/04/03 11:11:20;;;;;;;;;;;23.20;37.20;;;;;;5008974;28;20321;-75
2023/04/03 11:13:48;;;;;;;;;;;23.20;37.20;;;;;;5002870;28;19913;-75
2023/04/03 11:16:24;;;;;;;;;;;23.20;37.30;;;;;;5023873;28;19962;-76
2023/04/03 11:18:51;;;;;;;;;;;23.20;37.30;;;;;;5004534;28;19983;-75
2023/04/03 11:21:38;;;;;;;;;;;23.10;37.60;;;;;;5005590;28;20374;-76
2023/04/03 11:24:04;;;;;;;;;;;23.00;37.70;;;;;;5012842;28;19917;-75
2023/04/03 11:26:32;;;;;;;;;;;22.80;38.00;;;;;;5019722;28;19917;-76
2023/04/03 11:28:58;;;;;;;;;;;22.70;38.10;;;;;;5010912;28;19913;-75
2023/04/03 11:31:25;;;;;;;;;;;22.80;38.10;;;;;;5005906;28;20009;-75
2023/04/03 11:34:09;;;;;;;;;;;22.80;38.00;;;;;;5017850;28;20042;-76
2023/04/03 11:36:45;;;;;;;;;;;23.00;38.50;;;;;;5028960;28;19917;-76
2023/04/03 11:39:17;;;;;;;;;;;23.10;37.90;;;;;;5009485;28;19917;-75
2023/04/03 11:41:42;;;;;;;;;;;23.10;37.70;;;;;;5012659;28;20450;-76
2023/04/03 11:44:27;;;;;;;;;;;23.10;37.60;;;;;;5015210;28;19923;-76
2023/04/03 11:46:53;;;;;;;;;;;23.20;37.70;;;;;;5010564;28;19909;-76
2023/04/03 11:49:38;;;;;;;;;;;23.30;37.50;;;;;;5005468;28;19913;-75
2023/04/03 11:52:03;;;;;;;;;;;23.30;37.60;;;;;;5025564;28;20398;-75
2023/04/03 11:54:36;;;;;;;;;;;23.20;38.30;;;;;;5038110;27;19958;-75
2023/04/03 11:57:20;;;;;;;;;;;23.20;37.40;;;;;;5025895;28;20413;-75
2023/04/03 11:59:46;;;;;;;;;;;23.20;37.60;;;;;;5017477;28;19913;-74
2023/04/03 12:02:31;;;;;;;;;;;23.20;37.50;;;;;;5015282;28;19935;-75
2023/04/03 12:05:22;;;;;;;;;;;23.30;37.40;;;;;;5012086;28;20411;-75
2023/04/03 12:08:07;;;;;;;;;;;23.30;37.70;;;;;;5022853;28;19962;-75
2023/04/03 12:10:32;;;;;;;;;;;23.40;37.90;;;;;;5013850;27;20391;-75
2023/04/03 12:12:58;;;;;;;;;;;23.30;37.80;;;;;;5028065;28;19974;-75
2023/04/03 12:15:45;;;;;;;;;;;23.20;37.90;;;;;;5021598;27;20558;-75
2023/04/03 12:18:29;;;;;;;;;;;23.20;38.00;;;;;;5014291;28;19917;-75
2023/04/03 12:20:55;;;;;;;;;;;23.20;38.00;;;;;;5023382;28;19921;-76
2023/04/03 12:23:31;;;;;;;;;;;23.20;38.10;;;;;;5008998;28;19914;-75
2023/04/03 12:26:00;;;;;;;;;;;23.10;38.30;;;;;;5013577;28;19910;-75
2023/04/03 12:28:25;;;;;;;;;;;23.00;38.40;;;;;;5042312;28;20405;-74
2023/04/03 12:30:51;;;;;;;;;;;23.00;38.50;;;;;;5012575;28;19913;-75
2023/04/03 12:33:37;;;;;;;;;;;23.10;38.40;;;;;;5006886;28;19920;-74
2023/04/03 12:36:13;;;;;;;;;;;23.20;38.30;;;;;;5021121;28;19962;-74
2023/04/03 12:38:38;;;;;;;;;;;23.20;38.40;;;;;;5012552;28;20006;-74
2023/04/03 12:41:23;;;;;;;;;;;23.30;38.30;;;;;;5029660;28;19913;-74
2023/04/03 12:44:07;;;;;;;;;;;23.40;38.20;;;;;;5028571;28;19928;-75
2023/04/03 12:46:42;;;;;;;;;;;23.50;38.10;;;;;;5037086;28;20290;-75
2023/04/03 12:49:20;;;;;;;;;;;23.50;38.00;;;;;;5015936;28;20014;-74
2023/04/03 12:51:45;;;;;;;;;;;23.60;38.10;;;;;;5020617;28;19917;-75
2023/04/03 13:00:26;;;;;;;;;;;23.60;37.80;;;;;;5020111;28;19920;-75
2023/04/03 13:02:52;;;;;;;;;;;23.70;37.50;;;;;;5018265;28;19914;-75
2023/04/03 13:05:18;;;;;;;;;;;23.70;37.50;;;;;;5024382;28;20275;-75
2023/04/03 13:07:43;;;;;;;;;;;23.70;37.40;;;;;;5029751;28;20079;-75
2023/04/03 13:10:09;;;;;;;;;;;23.70;37.30;;;;;;5014054;28;19917;-75
2023/04/03 13:12:51;;;;;;;;;;;23.60;37.30;;;;;;5014717;28;19925;-75
2023/04/03 13:15:18;;;;;;;;;;;23.70;37.50;;;;;;5008222;28;20027;-76
2023/04/03 13:17:43;;;;;;;;;;;23.70;37.60;;;;;;5009637;28;20449;-77
2023/04/03 13:20:20;;;;;;;;;;;23.70;37.40;;;;;;5019856;28;19914;-76
2023/04/03 13:22:50;;;;;;;;;;;23.70;37.70;;;;;;4997406;28;20382;-75
2023/04/03 13:25:15;;;;;;;;;;;23.60;37.70;;;;;;5010719;28;19918;-75
2023/04/03 13:27:43;;;;;;;;;;;23.60;38.00;;;;;;4996154;28;20212;-76
2023/04/03 13:30:23;;;;;;;;;;;23.60;37.90;;;;;;5012213;28;19921;-75
2023/04/03 13:32:49;;;;;;;;;;;23.60;37.80;;;;;;5031208;28;20013;-75
2023/04/03 13:35:26;;;;;;;;;;;23.50;37.80;;;;;;5023439;28;20327;-75
2023/04/03 13:37:56;;;;;;;;;;;23.60;37.70;;;;;;5020469;28;20054;-75
2023/04/03 13:40:22;;;;;;;;;;;23.70;37.60;;;;;;5012417;28;19973;-75
2023/04/03 13:42:48;;;;;;;;;;;23.80;37.50;;;;;;5027480;28;19913;-74
2023/04/03 13:45:19;;;;;;;;;;;23.80;37.50;;;;;;5008952;28;20011;-75
2023/04/03 13:47:45;;;;;;;;;;;23.90;37.40;;;;;;5002643;28;19913;-75
2023/04/03 13:50:11;;;;;;;;;;;23.90;37.50;;;;;;5002207;28;19970;-75
2023/04/03 13:52:40;;;;;;;;;;;23.80;37.50;;;;;;5014238;28;20489;-75
2023/04/03 13:55:15;;;;;;;;;;;23.80;37.60;;;;;;5019828;28;20359;-74
2023/04/03 13:57:54;;;;;;;;;;;23.80;37.60;;;;;;5020928;28;19917;-74
2023/04/03 14:00:21;;;;;;;;;;;23.80;37.80;;;;;;5018260;28;20239;-75
2023/04/03 14:02:47;;;;;;;;;;;23.80;38.00;;;;;;5024046;28;19964;-74
2023/04/03 14:05:12;;;;;;;;;;;23.80;38.40;;;;;;5007660;28;19918;-75
2023/04/03 14:07:38;;;;;;;;;;;23.80;37.80;;;;;;5013101;28;19966;-74
2023/04/03 14:10:03;;;;;;;;;;;23.80;37.90;;;;;;5006647;28;19921;-75
2023/04/03 14:12:30;;;;;;;;;;;23.70;38.00;;;;;;5007985;28;20343;-76
2023/04/03 14:14:55;;;;;;;;;;;23.70;37.80;;;;;;5014107;28;20397;-75
2023/04/03 14:17:22;;;;;;;;;;;23.70;38.10;;;;;;5018904;28;20043;-75
2023/04/03 14:19:48;;;;;;;;;;;23.70;38.00;;;;;;5024341;28;19913;-75
2023/04/03 14:22:17;;;;;;;;;;;23.70;38.00;;;;;;5009021;28;20000;-75
2023/04/03 14:24:44;;;;;;;;;;;23.70;38.00;;;;;;5008867;28;19913;-75
2023/04/03 14:27:24;;;;;;;;;;;23.70;37.90;;;;;;5013386;28;19921;-75
2023/04/03 14:29:50;;;;;;;;;;;23.80;37.90;;;;;;5016477;28;19921;-75
2023/04/03 14:32:15;;;;;;;;;;;23.80;38.00;;;;;;5018383;28;20492;-75
2023/04/03 14:34:42;;;;;;;;;;;23.70;38.00;;;;;;5006267;28;19913;-75